createdAt,value
2018-10-07T00:02:02.326Z,97224.49
2018-10-07T00:04:32.153Z,97226.89
2018-10-07T00:07:01.726Z,97221.05
2018-10-07T00:09:31.337Z,97228.42
2018-10-07T00:12:00.803Z,97223.56
2018-10-07T00:14:30.318Z,97214.97
2018-10-07T00:16:59.763Z,97218.32
2018-10-07T00:19:29.461Z,97218.06
2018-10-07T00:21:59.101Z,97216.04
2018-10-07T00:24:28.856Z,97213.30
2018-10-07T00:26:58.313Z,97205.56
2018-10-07T00:29:27.957Z,97207.45
2018-10-07T00:32:02.458Z,97199.73
2018-10-07T00:34:32.385Z,97206.52
2018-10-07T00:37:01.861Z,97201.04
2018-10-07T00:39:31.458Z,97201.86
2018-10-07T00:42:00.865Z,97199.61
2018-10-07T00:44:30.472Z,97203.55
2018-10-07T00:46:59.901Z,97192.69
2018-10-07T00:49:29.676Z,97193.55
2018-10-07T00:51:59.184Z,97186.14
2018-10-07T00:54:28.974Z,97184.38
2018-10-07T00:56:58.353Z,97186.51
2018-10-07T00:59:27.915Z,97185.31
2018-10-07T01:01:57.499Z,97179.70
2018-10-07T01:04:26.953Z,97176.75
2018-10-07T01:06:56.403Z,97173.05
2018-10-07T01:09:26.159Z,97167.11
2018-10-07T01:11:55.903Z,97167.70
2018-10-07T01:14:25.521Z,97159.23
2018-10-07T01:16:55.203Z,97158.41
2018-10-07T01:19:24.854Z,97162.34
2018-10-07T01:21:54.476Z,97162.67
2018-10-07T01:24:24.135Z,97168.41
2018-10-07T01:26:53.613Z,97161.75
2018-10-07T01:29:23.275Z,97165.06
2018-10-07T01:31:52.675Z,97167.09
2018-10-07T01:34:22.805Z,97176.24
2018-10-07T01:36:52.886Z,97172.41
2018-10-07T01:39:22.613Z,97174.33
2018-10-07T01:41:52.420Z,97170.88
2018-10-07T01:44:22.133Z,97168.72
2018-10-07T01:46:51.880Z,97179.68
2018-10-07T01:49:21.973Z,97178.73
2018-10-07T01:51:51.915Z,97177.55
2018-10-07T01:54:21.515Z,97183.23
2018-10-07T01:56:51.294Z,97178.97
2018-10-07T01:59:21.067Z,97183.95
2018-10-07T02:01:50.626Z,97184.55
2018-10-07T02:04:20.315Z,97183.96
2018-10-07T02:06:49.745Z,97187.63
2018-10-07T02:09:19.404Z,97176.82
2018-10-07T02:11:48.881Z,97180.01
2018-10-07T02:14:18.487Z,97179.19
2018-10-07T02:16:48.084Z,97177.16
2018-10-07T02:19:17.854Z,97166.45
2018-10-07T02:21:47.560Z,97168.84
2018-10-07T02:24:17.080Z,97164.80
2018-10-07T02:26:46.580Z,97171.23
2018-10-07T02:29:16.221Z,97171.72
2018-10-07T02:31:45.655Z,97157.88
2018-10-07T02:34:15.841Z,97164.43
2018-10-07T02:36:45.554Z,97152.77
2018-10-07T02:39:15.258Z,97161.22
2018-10-07T02:41:45.022Z,97160.39
2018-10-07T02:44:14.780Z,97162.42
2018-10-07T02:46:44.276Z,97164.90
2018-10-07T02:49:13.838Z,97157.16
2018-10-07T02:51:43.599Z,97155.01
2018-10-07T02:54:13.297Z,97155.23
2018-10-07T02:56:42.957Z,97147.98
2018-10-07T02:59:13.022Z,97141.55
2018-10-07T03:01:42.454Z,97142.50
2018-10-07T03:04:11.960Z,97141.19
2018-10-07T03:06:41.524Z,97142.84
2018-10-07T03:09:12.094Z,97145.31
2018-10-07T03:11:41.585Z,97149.23
2018-10-07T03:14:11.298Z,97140.82
2018-10-07T03:16:40.798Z,97135.70
2018-10-07T03:19:10.454Z,97142.61
2018-10-07T03:21:39.938Z,97140.70
2018-10-07T03:24:09.614Z,97143.09
2018-10-07T03:26:39.080Z,97147.73
2018-10-07T03:29:09.185Z,97149.27
2018-10-07T03:31:38.637Z,97148.07
2018-10-07T03:34:08.398Z,97144.75
2018-10-07T03:36:37.917Z,97140.11
2018-10-07T03:39:09.357Z,97135.48
2018-10-07T03:41:39.246Z,97131.06
2018-10-07T03:44:08.929Z,97125.13
2018-10-07T03:46:38.449Z,97122.62
2018-10-07T03:49:08.025Z,97129.38
2018-10-07T03:51:37.684Z,97126.66
2018-10-07T03:54:07.271Z,97127.36
2018-10-07T03:56:36.881Z,97127.73
2018-10-07T03:59:07.430Z,97126.56
2018-10-07T04:01:37.204Z,97132.63
2018-10-07T04:04:07.159Z,97137.63
2018-10-07T04:06:36.856Z,97131.54
2018-10-07T04:09:12.107Z,97131.91
2018-10-07T04:11:42.966Z,97129.77
2018-10-07T04:14:14.319Z,97137.39
2018-10-07T04:16:43.746Z,97144.31
2018-10-07T04:19:13.847Z,97143.12
2018-10-07T04:21:48.537Z,97136.09
2018-10-07T04:24:18.161Z,97143.72
2018-10-07T04:26:47.762Z,97136.23
2018-10-07T04:29:18.962Z,97147.89
2018-10-07T04:31:48.620Z,97144.81
2018-10-07T04:34:19.599Z,97142.53
2018-10-07T04:36:49.047Z,97143.13
2018-10-07T04:39:18.876Z,97145.05
2018-10-07T04:41:49.004Z,97139.55
2018-10-07T04:44:19.979Z,97137.16
2018-10-07T04:46:49.686Z,97137.89
2018-10-07T04:49:22.165Z,97140.73
2018-10-07T04:51:51.752Z,97144.07
2018-10-07T04:54:22.456Z,97141.59
2018-10-07T04:56:51.984Z,97154.66
2018-10-07T04:59:21.478Z,97150.96
2018-10-07T05:01:50.917Z,97149.77
2018-10-07T05:04:20.549Z,97151.81
2018-10-07T05:06:50.349Z,97156.08
2018-10-07T05:09:20.390Z,97158.25
2018-10-07T05:11:50.170Z,97161.32
2018-10-07T05:14:25.813Z,97163.48
2018-10-07T05:19:38.860Z,97168.23
2018-10-07T05:22:15.066Z,97164.30
2018-10-07T05:24:44.639Z,97175.74
2018-10-07T05:40:08.299Z,97170.02
2018-10-07T05:42:38.153Z,97189.55
2018-10-07T05:45:07.839Z,97195.15
2018-10-07T05:47:57.100Z,97196.34
2018-10-07T05:50:28.600Z,97204.68
2018-10-07T05:52:58.279Z,97199.44
2018-10-07T05:55:52.080Z,97199.19
2018-10-07T05:58:21.901Z,97206.44
2018-10-07T06:00:54.039Z,97210.14
2018-10-07T06:03:44.521Z,97210.16
2018-10-07T06:06:15.060Z,97209.82
2018-10-07T06:08:45.202Z,97211.35
2018-10-07T06:11:29.299Z,97214.36
2018-10-07T06:13:59.219Z,97218.89
2018-10-07T06:16:57.639Z,97219.61
2018-10-07T06:19:27.560Z,97221.30
2018-10-07T06:21:57.299Z,97218.42
2018-10-07T06:24:26.959Z,97217.47
2018-10-07T06:27:17.658Z,97221.76
2018-10-07T06:29:47.532Z,97225.06
2018-10-07T06:32:17.351Z,97224.59
2018-10-07T06:34:59.518Z,97229.84
2018-10-07T06:37:29.061Z,97225.63
2018-10-07T06:39:59.184Z,97225.27
2018-10-07T06:58:48.267Z,97230.30
2018-10-07T07:01:18.251Z,97238.98
2018-10-07T07:03:47.939Z,97244.81
2018-10-07T07:06:24.855Z,97243.06
2018-10-07T07:08:55.431Z,97246.25
2018-10-07T07:14:17.658Z,97248.67
2018-10-07T07:16:47.432Z,97261.19
2018-10-07T07:19:16.878Z,97257.19
2018-10-07T07:21:58.958Z,97256.94
2018-10-07T07:24:28.554Z,97260.13
2018-10-07T07:27:09.978Z,97268.44
2018-10-07T07:29:51.523Z,97272.06
2018-10-07T07:32:21.327Z,97268.16
2018-10-07T07:34:51.035Z,97269.28
2018-10-07T07:37:20.712Z,97277.89
2018-10-07T07:39:56.040Z,97280.45
2018-10-07T07:42:26.423Z,97283.65
2018-10-07T07:47:51.044Z,97281.40
2018-10-07T07:50:21.579Z,97280.34
2018-10-07T07:52:51.499Z,97276.66
2018-10-07T07:55:37.671Z,97277.48
2018-10-07T07:58:07.804Z,97282.13
2018-10-07T08:00:41.793Z,97288.04
2018-10-07T08:03:11.241Z,97284.12
2018-10-07T08:05:41.359Z,97287.46
2018-10-07T08:08:11.219Z,97285.17
2018-10-07T08:10:40.806Z,97282.52
2018-10-07T08:13:11.194Z,97279.19
2018-10-07T08:15:40.632Z,97277.42
2018-10-07T08:18:10.055Z,97277.84
2018-10-07T08:20:43.171Z,97279.91
2018-10-07T08:26:05.273Z,97275.86
2018-10-07T08:31:28.739Z,97276.52
2018-10-07T08:36:58.854Z,97271.18
2018-10-07T08:39:28.435Z,97276.48
2018-10-07T08:41:59.178Z,97268.02
2018-10-07T08:44:45.813Z,97270.98
2018-10-07T08:47:15.612Z,97266.20
2018-10-07T08:52:39.854Z,97258.84
2018-10-07T08:58:11.840Z,97257.08
2018-10-07T09:27:29.492Z,97258.11
2018-10-07T09:30:10.882Z,97266.50
2018-10-07T09:32:40.733Z,97262.05
2018-10-07T09:35:10.035Z,97258.19
2018-10-07T09:37:39.628Z,97260.27
2018-10-07T09:40:09.062Z,97264.33
2018-10-07T09:42:38.509Z,97260.31
2018-10-07T09:45:08.274Z,97255.80
2018-10-07T09:47:41.470Z,97257.16
2018-10-07T09:50:13.744Z,97257.77
2018-10-07T09:52:43.272Z,97259.34
2018-10-07T09:55:12.896Z,97260.06
2018-10-07T09:57:42.525Z,97257.70
2018-10-07T10:00:12.042Z,97262.30
2018-10-07T10:02:41.843Z,97261.75
2018-10-07T10:05:11.249Z,97266.42
2018-10-07T10:07:40.785Z,97264.20
2018-10-07T10:10:10.485Z,97263.75
2018-10-07T10:12:40.133Z,97258.93
2018-10-07T10:15:09.585Z,97263.38
2018-10-07T10:17:39.414Z,97257.35
2018-10-07T10:20:11.128Z,97259.53
2018-10-07T10:23:16.863Z,97262.18
2018-10-07T10:28:02.083Z,97254.61
2018-10-07T10:30:51.457Z,97248.75
2018-10-07T10:33:39.017Z,97248.28
2018-10-07T10:36:23.346Z,97248.33
2018-10-07T10:39:10.037Z,97247.67
2018-10-07T10:41:48.316Z,97246.34
2018-10-07T10:44:24.640Z,97250.17
2018-10-07T10:48:04.877Z,97240.04
2018-10-07T10:50:43.917Z,97238.88
2018-10-07T10:53:27.440Z,97234.25
2018-10-07T10:56:11.640Z,97236.57
2018-10-07T10:58:51.119Z,97231.28
2018-10-07T11:01:38.846Z,97223.63
2018-10-07T11:04:15.900Z,97226.61
2018-10-07T11:07:21.606Z,97226.22
2018-10-07T11:10:03.718Z,97227.05
2018-10-07T11:13:06.663Z,97220.24
2018-10-07T11:15:39.304Z,97216.00
2018-10-07T11:18:27.586Z,97218.94
2018-10-07T11:22:14.647Z,97214.47
2018-10-07T11:27:49.678Z,97217.13
2018-10-07T11:30:38.988Z,97211.50
2018-10-07T11:33:19.605Z,97208.15
2018-10-07T11:39:18.999Z,97203.94
2018-10-07T11:57:49.186Z,97207.72
2018-10-07T12:00:18.982Z,97208.94
2018-10-07T12:05:41.886Z,97209.58
2018-10-07T12:08:14.266Z,97209.05
2018-10-07T12:10:43.705Z,97209.13
2018-10-07T12:16:07.646Z,97207.73
2018-10-07T12:18:45.187Z,97197.67
2018-10-07T12:21:14.987Z,97193.92
2018-10-07T12:23:44.519Z,97198.41
2018-10-07T12:29:15.259Z,97199.39
2018-10-07T12:31:44.889Z,97199.37
2018-10-07T12:34:19.166Z,97194.30
2018-10-07T12:36:49.348Z,97197.08
2018-10-07T12:39:19.958Z,97199.92
2018-10-07T12:41:50.502Z,97199.45
2018-10-07T12:44:39.207Z,97196.39
2018-10-07T12:47:09.188Z,97198.70
2018-10-07T12:49:38.602Z,97204.31
2018-10-07T12:52:13.815Z,97200.62
2018-10-07T12:54:43.346Z,97200.62
2018-10-07T12:57:13.005Z,97201.31
2018-10-07T12:59:42.486Z,97202.39
2018-10-07T13:02:14.086Z,97205.92
2018-10-07T13:04:43.935Z,97215.88
2018-10-07T13:10:43.119Z,97217.02
2018-10-07T13:16:07.561Z,97217.55
2018-10-07T13:21:30.046Z,97213.22
2018-10-07T13:26:57.678Z,97215.06
2018-10-07T13:29:27.025Z,97218.70
2018-10-07T13:32:07.367Z,97221.00
2018-10-07T13:34:49.528Z,97220.48
2018-10-07T13:37:20.886Z,97218.64
2018-10-07T13:42:43.639Z,97226.05
2018-10-07T13:48:12.105Z,97225.12
2018-10-07T13:50:41.606Z,97225.33
2018-10-07T13:53:25.670Z,97217.88
2018-10-07T13:55:55.205Z,97218.31
2018-10-07T13:58:24.738Z,97222.97
2018-10-07T14:00:54.165Z,97217.14
2018-10-07T14:03:23.700Z,97213.95
2018-10-07T14:05:53.678Z,97219.34
2018-10-07T14:08:23.244Z,97218.05
2018-10-07T14:10:52.807Z,97219.59
2018-10-07T14:13:22.390Z,97221.61
2018-10-07T14:15:52.038Z,97231.21
2018-10-07T14:18:21.526Z,97226.16
2018-10-07T14:20:51.026Z,97232.61
2018-10-07T14:23:20.693Z,97236.56
2018-10-07T14:25:50.325Z,97236.21
2018-10-07T14:28:19.924Z,97235.23
2018-10-07T14:30:49.545Z,97239.09
2018-10-07T14:33:19.125Z,97240.67
2018-10-07T14:35:48.909Z,97238.29
2018-10-07T14:38:18.646Z,97245.00
2018-10-07T14:40:48.726Z,97255.14
2018-10-07T14:43:18.478Z,97254.63
2018-10-07T14:45:48.101Z,97261.03
2018-10-07T14:48:17.786Z,97263.27
2018-10-07T14:50:47.942Z,97262.88
2018-10-07T14:53:17.558Z,97262.45
2018-10-07T14:55:47.487Z,97261.33
2018-10-07T14:58:17.248Z,97261.59
2018-10-07T15:00:47.006Z,97264.48
2018-10-07T15:03:16.666Z,97272.17
2018-10-07T15:05:46.353Z,97270.23
2018-10-07T15:08:16.820Z,97276.61
2018-10-07T15:10:46.706Z,97272.22
2018-10-07T15:13:16.568Z,97276.62
2018-10-07T15:15:46.827Z,97273.02
2018-10-07T15:18:17.040Z,97280.42
2018-10-07T15:20:46.862Z,97284.69
2018-10-07T15:23:16.846Z,97287.63
2018-10-07T15:25:46.587Z,97289.42
2018-10-07T15:28:16.207Z,97282.73
2018-10-07T15:30:45.839Z,97286.78
2018-10-07T15:33:15.407Z,97293.00
2018-10-07T15:35:45.083Z,97289.98
2018-10-07T15:38:15.008Z,97294.73
2018-10-07T15:40:44.904Z,97300.77
2018-10-07T15:43:14.462Z,97302.20
2018-10-07T15:45:44.352Z,97304.25
2018-10-07T15:48:14.028Z,97310.97
2018-10-07T15:50:43.981Z,97311.33
2018-10-07T15:53:14.001Z,97315.53
2018-10-07T15:55:43.802Z,97316.25
2018-10-07T15:58:13.523Z,97330.02
2018-10-07T16:00:43.128Z,97334.04
2018-10-07T16:03:14.561Z,97340.52
2018-10-07T16:05:44.469Z,97345.03
2018-10-07T16:08:14.779Z,97345.95
2018-10-07T16:10:44.722Z,97341.87
2018-10-07T16:13:14.661Z,97348.55
2018-10-07T16:15:44.761Z,97351.75
2018-10-07T16:18:14.804Z,97352.98
2018-10-07T16:20:44.662Z,97356.39
2018-10-07T16:23:15.642Z,97359.44
2018-10-07T16:25:45.103Z,97366.47
2018-10-07T16:28:14.823Z,97375.34
2018-10-07T16:30:44.864Z,97374.92
2018-10-07T16:33:14.749Z,97374.65
2018-10-07T16:35:44.823Z,97380.19
2018-10-07T16:38:14.523Z,97383.92
2018-10-07T16:40:44.290Z,97381.91
2018-10-07T16:43:13.983Z,97383.23
2018-10-07T16:45:44.112Z,97388.14
2018-10-07T16:48:13.690Z,97391.91
2018-10-07T16:50:43.550Z,97396.95
2018-10-07T16:53:13.391Z,97401.53
2018-10-07T16:55:43.784Z,97406.94
2018-10-07T16:58:13.591Z,97408.90
2018-10-07T17:00:43.330Z,97409.03
2018-10-07T17:03:13.383Z,97414.44
2018-10-07T17:05:43.810Z,97416.92
2018-10-07T17:08:14.695Z,97421.31
2018-10-07T17:10:45.068Z,97422.53
2018-10-07T17:13:15.376Z,97422.43
2018-10-07T17:15:45.244Z,97425.36
2018-10-07T17:18:15.750Z,97434.34
2018-10-07T17:20:45.583Z,97439.75
2018-10-07T17:23:17.423Z,97443.95
2018-10-07T17:25:47.303Z,97439.31
2018-10-07T17:28:18.395Z,97444.35
2018-10-07T17:30:48.111Z,97447.61
2018-10-07T17:33:18.850Z,97450.17
2018-10-07T17:35:48.724Z,97452.21
2018-10-07T17:38:18.590Z,97448.19
2018-10-07T17:40:48.453Z,97446.17
2018-10-07T17:43:18.523Z,97448.94
2018-10-07T17:45:48.971Z,97462.13
2018-10-07T17:48:19.603Z,97464.45
2018-10-07T17:50:49.515Z,97467.47
2018-10-07T17:53:20.183Z,97467.39
2018-10-07T17:55:50.028Z,97464.31
2018-10-07T17:58:21.131Z,97474.36
2018-10-07T18:00:50.852Z,97472.27
2018-10-07T18:03:21.436Z,97479.59
2018-10-07T18:05:51.123Z,97481.75
2018-10-07T18:08:22.951Z,97487.98
2018-10-07T18:10:52.749Z,97482.36
2018-10-07T18:13:23.888Z,97490.74
2018-10-07T18:15:53.693Z,97497.52
2018-10-07T18:18:24.550Z,97500.48
2018-10-07T18:20:54.710Z,97506.16
2018-10-07T18:23:26.411Z,97504.16
2018-10-07T18:25:56.482Z,97508.93
2018-10-07T18:28:27.070Z,97515.42
2018-10-07T18:30:57.130Z,97516.36
2018-10-07T18:33:28.105Z,97523.06
2018-10-07T18:35:58.250Z,97533.58
2018-10-07T18:38:29.550Z,97534.77
2018-10-07T18:40:59.851Z,97539.33
2018-10-07T18:43:31.075Z,97541.47
2018-10-07T18:46:01.223Z,97543.48
2018-10-07T18:48:32.411Z,97547.80
2018-10-07T18:51:02.310Z,97552.23
2018-10-07T18:53:33.810Z,97550.58
2018-10-07T18:56:03.875Z,97546.00
2018-10-07T18:58:36.330Z,97555.81
2018-10-07T19:01:06.302Z,97559.05
2018-10-07T19:03:38.060Z,97564.80
2018-10-07T19:06:09.057Z,97571.59
2018-10-07T19:08:40.527Z,97575.41
2018-10-07T19:11:10.829Z,97571.34
2018-10-07T19:13:43.149Z,97577.44
2018-10-07T19:16:13.242Z,97579.73
2018-10-07T19:18:43.649Z,97580.67
2018-10-07T19:21:14.232Z,97581.50
2018-10-07T19:23:44.908Z,97586.64
2018-10-07T19:26:15.322Z,97589.55
2018-10-07T19:28:49.075Z,97589.79
2018-10-07T19:31:18.928Z,97595.88
2018-10-07T19:33:50.240Z,97583.92
2018-10-07T19:36:21.368Z,97596.95
2018-10-07T19:38:51.540Z,97596.95
2018-10-07T19:41:21.575Z,97605.30
2018-10-07T19:43:52.035Z,97607.34
2018-10-07T19:46:22.329Z,97607.68
2018-10-07T19:48:53.579Z,97607.68
2018-10-07T19:51:23.669Z,97602.78
2018-10-07T19:53:54.168Z,97606.61
2018-10-07T19:56:24.642Z,97614.50
2018-10-07T19:58:55.461Z,97617.95
2018-10-07T20:01:46.407Z,97623.92
2018-10-07T20:07:11.948Z,97635.77
2018-10-07T20:09:41.930Z,97636.63
2018-10-07T20:12:29.945Z,97635.77
2018-10-07T20:15:00.325Z,97643.53
2018-10-07T20:17:30.969Z,97634.20
2018-10-07T20:20:00.855Z,97639.01
2018-10-07T20:22:30.644Z,97644.84
2018-10-07T20:25:00.806Z,97643.20
2018-10-07T20:27:30.795Z,97645.45
2018-10-07T20:30:01.848Z,97652.52
2018-10-07T20:32:31.849Z,97653.84
2018-10-07T20:35:02.616Z,97656.92
2018-10-07T20:37:32.572Z,97661.36
2018-10-07T20:40:02.505Z,97661.86
2018-10-07T20:42:32.437Z,97677.39
2018-10-07T20:45:03.115Z,97670.72
2018-10-07T20:47:32.564Z,97664.61
2018-10-07T20:50:02.078Z,97668.17
2018-10-07T20:52:31.810Z,97672.02
2018-10-07T20:55:01.870Z,97672.02
2018-10-07T20:57:31.591Z,97675.59
2018-10-07T21:00:01.546Z,97672.97
2018-10-07T21:02:31.015Z,97679.08
2018-10-07T21:05:00.552Z,97677.14
2018-10-07T21:07:29.992Z,97677.52
2018-10-07T21:09:59.516Z,97675.49
2018-10-07T21:12:29.205Z,97676.44
2018-10-07T21:14:58.664Z,97670.23
2018-10-07T21:17:28.090Z,97669.27
2018-10-07T21:19:57.686Z,97671.77
2018-10-07T21:22:27.368Z,97672.97
2018-10-07T21:24:56.788Z,97673.34
2018-10-07T21:27:26.203Z,97672.14
2018-10-07T21:29:55.919Z,97666.88
2018-10-07T21:32:25.348Z,97671.31
2018-10-07T21:34:54.789Z,97675.00
2018-10-07T21:37:24.251Z,97674.79
2018-10-07T21:39:53.713Z,97677.98
2018-10-07T21:42:23.113Z,97692.56
2018-10-07T21:44:52.549Z,97687.09
2018-10-07T21:47:21.994Z,97691.03
2018-10-07T21:49:51.510Z,97691.48
2018-10-07T21:52:21.222Z,97684.09
2018-10-07T21:54:50.667Z,97690.66
2018-10-07T21:57:20.775Z,97692.34
2018-10-07T21:59:50.509Z,97690.66
2018-10-07T22:02:19.909Z,97690.66
2018-10-07T22:04:49.433Z,97692.09
2018-10-07T22:07:18.874Z,97689.95
2018-10-07T22:09:48.550Z,97683.87
2018-10-07T22:12:17.989Z,97688.76
2018-10-07T22:14:47.432Z,97691.75
2018-10-07T22:17:16.851Z,97693.19
2018-10-07T22:19:46.622Z,97693.64
2018-10-07T22:22:16.063Z,97697.36
2018-10-07T22:24:45.542Z,97693.17
2018-10-07T22:27:14.949Z,97686.83
2018-10-07T22:29:44.412Z,97686.61
2018-10-07T22:32:13.843Z,97688.40
2018-10-07T22:34:43.276Z,97682.66
2018-10-07T22:37:12.706Z,97681.58
2018-10-07T22:39:43.466Z,97690.18
2018-10-07T22:42:12.984Z,97684.81
2018-10-07T22:44:43.390Z,97681.56
2018-10-07T22:47:12.747Z,97688.36
2018-10-07T22:49:43.526Z,97685.52
2018-10-07T22:52:13.203Z,97684.43
2018-10-07T22:54:43.176Z,97683.84
2018-10-07T22:57:12.857Z,97682.64
2018-10-07T22:59:42.474Z,97681.44
2018-10-07T23:02:12.066Z,97687.63
2018-10-07T23:04:41.667Z,97693.86
2018-10-07T23:07:11.426Z,97690.52
2018-10-07T23:09:40.935Z,97686.91
2018-10-07T23:12:10.767Z,97685.03
2018-10-07T23:14:40.391Z,97682.52
2018-10-07T23:17:10.223Z,97690.52
2018-10-07T23:19:39.770Z,97696.38
2018-10-07T23:22:09.390Z,97699.45
2018-10-07T23:24:38.776Z,97700.31
2018-10-07T23:27:08.565Z,97702.94
2018-10-07T23:29:38.008Z,97704.71
2018-10-07T23:32:07.602Z,97702.45
2018-10-07T23:34:37.192Z,97700.66
2018-10-07T23:37:06.961Z,97702.08
2018-10-07T23:39:36.408Z,97697.06
2018-10-07T23:42:05.987Z,97699.57
2018-10-07T23:44:35.392Z,97702.57
2018-10-07T23:47:05.033Z,97700.31
2018-10-07T23:49:34.469Z,97701.63
2018-10-07T23:52:04.258Z,97704.59
2018-10-07T23:54:33.694Z,97710.45
2018-10-07T23:57:03.434Z,97707.82
2018-10-07T23:59:32.914Z,97705.56
